createdAt,value
2022-07-30T00:00:25.356Z,17.78
2022-07-30T00:02:52.545Z,17.81
2022-07-30T00:05:19.210Z,17.79
2022-07-30T00:07:48.337Z,17.81
2022-07-30T00:10:15.141Z,17.83
2022-07-30T00:12:41.884Z,17.83
2022-07-30T00:15:13.301Z,17.76
2022-07-30T00:17:42.165Z,17.74
2022-07-30T00:20:15.830Z,17.79
2022-07-30T00:22:43.142Z,17.73
2022-07-30T00:25:10.102Z,17.72
2022-07-30T00:27:38.987Z,17.65
2022-07-30T00:30:06.844Z,17.69
2022-07-30T00:32:33.432Z,17.61
2022-07-30T00:35:00.367Z,17.61
2022-07-30T00:37:27.008Z,17.59
2022-07-30T00:39:55.914Z,17.56
2022-07-30T00:42:25.884Z,17.50
2022-07-30T00:44:53.287Z,17.46
2022-07-30T00:47:24.582Z,17.46
2022-07-30T00:49:56.098Z,17.42
2022-07-30T00:52:22.656Z,17.38
2022-07-30T00:54:53.990Z,17.20
2022-07-30T00:57:22.828Z,17.19
2022-07-30T00:59:51.799Z,17.19
2022-07-30T01:02:18.512Z,17.23
2022-07-30T01:04:45.244Z,17.22
2022-07-30T01:07:16.332Z,17.18
2022-07-30T01:09:48.437Z,17.16
2022-07-30T01:12:20.109Z,17.13
2022-07-30T01:14:46.777Z,17.02
2022-07-30T01:17:13.992Z,16.99
2022-07-30T01:19:52.525Z,16.96
2022-07-30T01:22:33.294Z,17.02
2022-07-30T01:25:17.299Z,17.00
2022-07-30T01:28:03.204Z,16.97
2022-07-30T01:30:32.777Z,16.97
2022-07-30T01:33:06.291Z,16.96
2022-07-30T01:35:37.711Z,16.97
2022-07-30T01:38:08.366Z,16.96
2022-07-30T01:40:38.831Z,16.90
2022-07-30T01:43:09.555Z,16.93
2022-07-30T01:45:44.266Z,16.92
2022-07-30T01:48:13.581Z,16.93
2022-07-30T01:50:44.375Z,16.87
2022-07-30T01:53:17.826Z,16.81
2022-07-30T01:55:48.209Z,16.82
2022-07-30T01:58:18.313Z,16.78
2022-07-30T02:00:48.126Z,16.74
2022-07-30T02:03:18.372Z,16.79
2022-07-30T02:05:56.610Z,16.81
2022-07-30T02:08:44.478Z,16.84
2022-07-30T02:11:15.140Z,16.77
2022-07-30T02:13:50.571Z,16.75
2022-07-30T02:16:40.628Z,16.79
2022-07-30T02:19:14.720Z,16.79
2022-07-30T02:21:58.840Z,16.78
2022-07-30T02:24:35.262Z,16.73
2022-07-30T02:27:07.402Z,16.71
2022-07-30T02:29:38.752Z,16.68
2022-07-30T02:32:10.773Z,16.64
2022-07-30T02:34:42.684Z,16.67
2022-07-30T02:37:12.442Z,16.71
2022-07-30T02:39:41.751Z,16.66
2022-07-30T02:42:13.089Z,16.64
2022-07-30T02:44:43.865Z,16.65
2022-07-30T02:47:12.760Z,16.66
2022-07-30T02:49:44.533Z,16.66
2022-07-30T02:52:15.660Z,16.63
2022-07-30T02:54:46.022Z,16.65
2022-07-30T02:57:14.974Z,16.67
2022-07-30T02:59:44.089Z,16.64
2022-07-30T03:02:12.829Z,16.62
2022-07-30T03:04:45.043Z,16.55
2022-07-30T03:07:20.163Z,16.42
2022-07-30T03:09:52.078Z,16.37
2022-07-30T03:12:23.028Z,16.35
2022-07-30T03:14:52.787Z,16.36
2022-07-30T03:17:21.974Z,16.30
2022-07-30T03:19:52.184Z,16.31
2022-07-30T03:22:22.004Z,16.21
2022-07-30T03:24:54.373Z,16.20
2022-07-30T03:27:25.737Z,16.17
2022-07-30T03:29:59.333Z,16.11
2022-07-30T03:32:28.185Z,16.07
2022-07-30T03:34:56.473Z,16.04
2022-07-30T03:37:25.610Z,15.97
2022-07-30T03:39:55.537Z,15.96
2022-07-30T03:42:22.708Z,15.87
2022-07-30T03:44:52.447Z,15.92
2022-07-30T03:47:23.302Z,15.88
2022-07-30T03:49:52.566Z,15.85
2022-07-30T03:52:22.012Z,15.78
2022-07-30T03:54:48.754Z,15.83
2022-07-30T03:57:18.319Z,15.81
2022-07-30T03:59:51.796Z,15.82
2022-07-30T04:02:20.976Z,15.85
2022-07-30T04:04:47.642Z,15.77
2022-07-30T04:07:18.113Z,15.77
2022-07-30T04:09:44.899Z,15.69
2022-07-30T04:12:16.409Z,15.69
2022-07-30T04:14:47.622Z,15.74
2022-07-30T04:17:46.124Z,15.76
2022-07-30T04:20:18.198Z,15.71
2022-07-30T04:22:47.616Z,15.73
2022-07-30T04:25:24.306Z,15.70
2022-07-30T04:28:03.022Z,15.73
2022-07-30T04:30:34.955Z,15.80
2022-07-30T04:33:05.378Z,15.79
2022-07-30T04:35:50.578Z,15.82
2022-07-30T04:38:23.678Z,15.83
2022-07-30T04:40:53.110Z,15.86
2022-07-30T04:43:19.657Z,15.89
2022-07-30T04:45:46.188Z,15.93
2022-07-30T04:48:13.027Z,16.00
2022-07-30T04:50:43.305Z,16.07
2022-07-30T04:53:11.243Z,16.23
2022-07-30T04:55:42.447Z,16.37
2022-07-30T04:58:10.807Z,16.53
2022-07-30T05:00:41.381Z,16.71
2022-07-30T05:03:12.748Z,16.85
2022-07-30T05:05:40.987Z,16.99
2022-07-30T05:08:07.688Z,17.18
2022-07-30T05:10:34.405Z,17.33
2022-07-30T05:13:03.395Z,17.58
2022-07-30T05:15:36.262Z,17.49
2022-07-30T05:18:06.649Z,17.85
2022-07-30T05:20:33.252Z,17.71
2022-07-30T05:23:00.321Z,17.49
2022-07-30T05:25:29.931Z,17.73
2022-07-30T05:27:58.931Z,18.02
2022-07-30T05:30:27.937Z,18.71
2022-07-30T05:32:54.709Z,19.24
2022-07-30T05:35:22.753Z,19.39
2022-07-30T05:37:49.676Z,20.55
2022-07-30T05:40:16.336Z,20.42
2022-07-30T05:42:42.935Z,19.96
2022-07-30T05:45:12.893Z,19.76
2022-07-30T05:47:39.531Z,19.55
2022-07-30T05:50:06.458Z,19.91
2022-07-30T05:52:35.566Z,19.71
2022-07-30T05:55:05.223Z,19.99
2022-07-30T05:57:33.999Z,20.40
2022-07-30T06:00:01.108Z,20.44
2022-07-30T06:02:27.731Z,20.24
2022-07-30T06:04:56.688Z,21.15
2022-07-30T06:07:23.717Z,20.44
2022-07-30T06:09:50.454Z,20.08
2022-07-30T06:12:19.227Z,20.88
2022-07-30T06:14:46.181Z,21.81
2022-07-30T06:17:15.745Z,22.28
2022-07-30T06:19:42.285Z,23.43
2022-07-30T06:22:09.262Z,23.59
2022-07-30T06:24:40.535Z,23.46
2022-07-30T06:27:07.146Z,24.22
2022-07-30T06:29:36.385Z,24.48
2022-07-30T06:32:03.210Z,24.51
2022-07-30T06:34:29.813Z,23.48
2022-07-30T06:36:58.928Z,23.05
2022-07-30T06:39:57.934Z,22.18
2022-07-30T06:42:14.510Z,22.08
2022-07-30T06:44:43.944Z,21.80
2022-07-30T06:47:13.045Z,21.16
2022-07-30T06:49:40.387Z,21.12
2022-07-30T06:52:09.618Z,20.50
2022-07-30T06:54:36.538Z,20.81
2022-07-30T06:57:05.345Z,20.79
2022-07-30T06:59:57.332Z,20.62
2022-07-30T07:02:25.148Z,20.68
2022-07-30T07:04:51.816Z,20.59
2022-07-30T07:07:37.197Z,20.78
2022-07-30T07:10:11.151Z,20.73
2022-07-30T07:12:37.776Z,20.94
2022-07-30T07:15:05.274Z,21.00
2022-07-30T07:17:35.383Z,20.72
2022-07-30T07:20:02.755Z,21.22
2022-07-30T07:22:30.025Z,21.46
2022-07-30T07:24:56.690Z,21.76
2022-07-30T07:27:23.972Z,21.56
2022-07-30T07:30:01.499Z,21.61
2022-07-30T07:32:34.066Z,21.78
2022-07-30T07:35:03.031Z,22.08
2022-07-30T07:37:29.656Z,21.99
2022-07-30T07:39:56.426Z,21.96
2022-07-30T07:42:23.600Z,22.29
2022-07-30T07:44:53.228Z,22.54
2022-07-30T07:47:20.252Z,22.50
2022-07-30T07:49:46.786Z,22.28
2022-07-30T07:52:13.381Z,22.39
2022-07-30T07:54:40.023Z,22.76
2022-07-30T07:57:12.846Z,22.77
2022-07-30T07:59:42.022Z,22.48
2022-07-30T08:02:09.097Z,22.93
2022-07-30T08:04:36.367Z,22.74
2022-07-30T08:07:06.120Z,23.12
2022-07-30T08:09:43.591Z,22.89
2022-07-30T08:12:11.191Z,23.02
2022-07-30T08:14:42.535Z,23.32
2022-07-30T08:17:09.563Z,23.32
2022-07-30T08:19:41.055Z,23.66
2022-07-30T08:22:10.751Z,23.65
2022-07-30T08:24:37.340Z,24.04
2022-07-30T08:27:04.725Z,24.22
2022-07-30T08:29:33.812Z,24.35
2022-07-30T08:32:03.066Z,23.98
2022-07-30T08:34:29.974Z,24.06
2022-07-30T08:36:56.537Z,24.13
2022-07-30T08:39:23.071Z,24.36
2022-07-30T08:41:50.160Z,24.60
2022-07-30T08:44:18.743Z,24.62
2022-07-30T08:46:52.119Z,24.38
2022-07-30T08:49:19.262Z,24.88
2022-07-30T08:51:48.105Z,25.08
2022-07-30T08:54:14.794Z,24.76
2022-07-30T08:56:41.773Z,24.99
2022-07-30T08:59:08.429Z,25.45
2022-07-30T09:01:35.082Z,25.57
2022-07-30T09:04:01.859Z,25.69
2022-07-30T09:06:28.824Z,25.81
2022-07-30T09:09:00.621Z,25.51
2022-07-30T09:11:27.443Z,25.25
2022-07-30T09:13:54.079Z,25.51
2022-07-30T09:16:29.375Z,25.26
2022-07-30T09:19:13.881Z,25.16
2022-07-30T09:21:41.002Z,25.48
2022-07-30T09:24:11.067Z,25.71
2022-07-30T09:26:59.555Z,26.26
2022-07-30T09:29:28.345Z,26.62
2022-07-30T09:31:56.844Z,26.58
2022-07-30T09:34:40.186Z,26.02
2022-07-30T09:37:09.445Z,26.16
2022-07-30T09:39:41.361Z,26.47
2022-07-30T09:42:25.826Z,25.77
2022-07-30T09:45:04.790Z,25.50
2022-07-30T09:47:33.235Z,25.21
2022-07-30T09:50:17.751Z,25.41
2022-07-30T09:52:48.815Z,25.56
2022-07-30T09:55:30.562Z,26.30
2022-07-30T09:58:07.197Z,26.68
2022-07-30T10:00:36.878Z,26.43
2022-07-30T10:03:33.227Z,25.44
2022-07-30T10:06:01.607Z,25.48
2022-07-30T10:08:51.306Z,26.41
2022-07-30T10:11:26.744Z,26.40
2022-07-30T10:13:59.409Z,25.92
2022-07-30T10:16:30.476Z,25.77
2022-07-30T10:19:00.251Z,26.41
2022-07-30T10:21:32.493Z,26.53
2022-07-30T10:24:02.936Z,25.33
2022-07-30T10:26:36.170Z,25.15
2022-07-30T10:29:05.256Z,25.63
2022-07-30T10:31:49.606Z,26.06
2022-07-30T10:34:23.631Z,26.64
2022-07-30T10:37:04.462Z,26.74
2022-07-30T10:39:37.297Z,27.01
2022-07-30T10:42:12.657Z,27.23
2022-07-30T10:45:08.133Z,25.86
2022-07-30T10:47:44.957Z,25.78
2022-07-30T10:50:26.786Z,25.54
2022-07-30T10:52:56.768Z,25.29
2022-07-30T10:55:37.497Z,25.28
2022-07-30T10:58:11.612Z,26.40
2022-07-30T11:00:53.641Z,26.90
2022-07-30T11:03:40.265Z,26.53
2022-07-30T11:06:24.361Z,25.74
2022-07-30T11:08:51.622Z,26.50
2022-07-30T11:11:58.994Z,26.89
2022-07-30T11:14:10.742Z,27.09
2022-07-30T11:16:37.315Z,27.49
2022-07-30T11:22:27.488Z,26.67
2022-07-30T11:24:56.845Z,26.61
2022-07-30T11:27:36.077Z,26.33
2022-07-30T11:30:26.520Z,26.27
2022-07-30T11:33:12.686Z,25.98
2022-07-30T11:35:39.696Z,26.69
2022-07-30T11:38:10.147Z,27.05
2022-07-30T11:40:59.152Z,27.56
2022-07-30T11:43:35.565Z,27.82
2022-07-30T11:46:16.265Z,27.89
2022-07-30T11:48:57.436Z,28.12
2022-07-30T11:51:24.479Z,28.56
2022-07-30T11:54:05.108Z,28.91
2022-07-30T11:56:34.608Z,29.02
2022-07-30T11:59:03.194Z,29.13
2022-07-30T12:01:30.979Z,29.59
2022-07-30T12:03:58.193Z,29.81
2022-07-30T12:06:28.535Z,30.13
2022-07-30T12:08:58.790Z,30.07
2022-07-30T12:11:31.818Z,29.86
2022-07-30T12:14:03.151Z,28.66
2022-07-30T12:16:31.311Z,27.83
2022-07-30T12:19:05.540Z,26.95
2022-07-30T12:21:32.484Z,27.04
2022-07-30T12:24:12.658Z,26.91
2022-07-30T12:26:42.099Z,27.11
2022-07-30T12:29:14.967Z,27.23
2022-07-30T12:31:46.129Z,27.29
2022-07-30T12:34:26.043Z,27.38
2022-07-30T12:36:55.584Z,27.43
2022-07-30T12:39:28.641Z,26.92
2022-07-30T12:41:58.508Z,27.06
2022-07-30T12:44:36.335Z,27.01
2022-07-30T12:47:05.375Z,26.74
2022-07-30T12:49:36.529Z,26.75
2022-07-30T12:52:09.621Z,26.74
2022-07-30T12:54:44.865Z,26.30
2022-07-30T12:57:14.106Z,26.49
2022-07-30T12:59:42.742Z,26.63
2022-07-30T13:02:12.670Z,26.75
2022-07-30T13:04:59.151Z,26.74
2022-07-30T13:07:59.293Z,26.87
2022-07-30T13:10:30.761Z,26.91
2022-07-30T13:13:03.324Z,27.26
2022-07-30T13:15:30.495Z,27.42
2022-07-30T13:17:57.147Z,27.51
2022-07-30T13:20:23.873Z,27.56
2022-07-30T13:22:52.869Z,27.55
2022-07-30T13:25:21.826Z,27.67
2022-07-30T13:27:48.579Z,27.59
2022-07-30T13:30:15.189Z,27.88
2022-07-30T13:32:42.129Z,27.90
2022-07-30T13:35:09.224Z,28.05
2022-07-30T13:37:37.694Z,28.26
2022-07-30T13:40:06.278Z,28.16
2022-07-30T13:42:32.970Z,28.56
2022-07-30T13:44:59.672Z,28.85
2022-07-30T13:47:31.096Z,29.33
2022-07-30T13:49:57.707Z,28.87
2022-07-30T13:52:29.171Z,29.06
2022-07-30T13:54:55.750Z,29.42
2022-07-30T13:57:22.461Z,29.61
2022-07-30T13:59:49.028Z,29.72
2022-07-30T14:02:15.587Z,29.67
2022-07-30T14:04:46.624Z,29.85
2022-07-30T14:07:14.590Z,29.61
2022-07-30T14:09:43.361Z,29.64
2022-07-30T14:12:12.431Z,28.97
2022-07-30T14:14:39.055Z,28.90
2022-07-30T14:17:08.131Z,29.40
2022-07-30T14:19:34.759Z,29.17
2022-07-30T14:22:04.231Z,28.40
2022-07-30T14:24:30.877Z,28.21
2022-07-30T14:27:00.393Z,27.74
2022-07-30T14:29:32.425Z,28.28
2022-07-30T14:32:01.393Z,28.31
2022-07-30T14:34:28.347Z,27.72
2022-07-30T14:36:55.144Z,27.75
2022-07-30T14:39:25.001Z,27.38
2022-07-30T14:41:55.503Z,28.58
2022-07-30T14:44:25.015Z,28.54
2022-07-30T14:46:53.842Z,28.99
2022-07-30T14:49:22.855Z,28.77
2022-07-30T14:51:50.599Z,29.19
2022-07-30T14:54:17.631Z,29.24
2022-07-30T14:56:46.752Z,29.44
2022-07-30T14:59:13.398Z,29.51
2022-07-30T15:01:41.992Z,29.42
2022-07-30T15:04:12.442Z,29.52
2022-07-30T15:06:40.851Z,29.63
2022-07-30T15:09:08.337Z,29.74
2022-07-30T15:11:56.438Z,29.88
2022-07-30T15:14:24.768Z,30.13
2022-07-30T15:16:51.552Z,30.23
2022-07-30T15:19:18.104Z,30.14
2022-07-30T15:21:44.986Z,29.90
2022-07-30T15:24:11.558Z,29.61
2022-07-30T15:26:43.039Z,29.37
2022-07-30T15:29:14.488Z,29.25
2022-07-30T15:31:43.442Z,29.48
2022-07-30T15:34:10.995Z,29.80
2022-07-30T15:36:39.042Z,29.27
2022-07-30T15:39:06.679Z,28.86
2022-07-30T15:41:35.464Z,28.89
2022-07-30T15:44:06.853Z,29.02
2022-07-30T15:46:35.674Z,28.77
2022-07-30T15:49:05.362Z,28.49
2022-07-30T15:51:35.424Z,28.39
2022-07-30T15:54:04.420Z,28.23
2022-07-30T15:56:33.391Z,28.06
2022-07-30T15:59:02.983Z,27.98
2022-07-30T16:01:29.681Z,28.18
2022-07-30T16:03:56.284Z,28.51
2022-07-30T16:06:22.830Z,28.63
2022-07-30T16:08:54.194Z,28.77
2022-07-30T16:11:21.005Z,28.48
2022-07-30T16:13:51.058Z,28.34
2022-07-30T16:16:18.294Z,28.33
2022-07-30T16:18:49.760Z,28.18
2022-07-30T16:21:16.375Z,28.34
2022-07-30T16:23:45.299Z,28.43
2022-07-30T16:26:15.045Z,28.29
2022-07-30T16:28:41.730Z,28.28
2022-07-30T16:31:08.312Z,28.32
2022-07-30T16:33:34.935Z,28.36
2022-07-30T16:36:01.507Z,28.08
2022-07-30T16:38:30.412Z,28.26
2022-07-30T16:40:59.517Z,28.21
2022-07-30T16:43:26.240Z,28.32
2022-07-30T16:45:52.837Z,28.29
2022-07-30T16:48:19.448Z,28.13
2022-07-30T16:50:46.208Z,28.08
2022-07-30T16:53:14.346Z,27.93
2022-07-30T16:55:41.599Z,27.99
2022-07-30T16:58:10.581Z,28.00
2022-07-30T17:00:37.456Z,27.81
2022-07-30T17:03:04.235Z,27.74
2022-07-30T17:05:31.238Z,27.42
2022-07-30T17:08:00.826Z,27.53
2022-07-30T17:10:27.728Z,27.47
2022-07-30T17:12:57.179Z,27.45
2022-07-30T17:15:32.640Z,27.39
2022-07-30T17:18:03.243Z,27.36
2022-07-30T17:20:32.937Z,27.35
2022-07-30T17:23:01.831Z,27.16
2022-07-30T17:25:28.478Z,27.18
2022-07-30T17:27:58.853Z,27.06
2022-07-30T17:30:27.311Z,26.96
2022-07-30T17:32:53.956Z,26.82
2022-07-30T17:35:20.772Z,26.83
2022-07-30T17:37:49.571Z,26.66
2022-07-30T17:40:28.543Z,26.35
2022-07-30T17:43:03.610Z,26.37
2022-07-30T17:45:31.370Z,26.28
2022-07-30T17:48:01.804Z,26.18
2022-07-30T17:50:28.861Z,26.16
2022-07-30T17:52:55.401Z,26.01
2022-07-30T17:55:21.949Z,25.74
2022-07-30T17:57:50.810Z,25.67
2022-07-30T18:00:17.707Z,25.57
2022-07-30T18:02:44.431Z,25.30
2022-07-30T18:05:15.663Z,25.29
2022-07-30T18:07:46.244Z,25.13
2022-07-30T18:10:15.072Z,25.05
2022-07-30T18:12:49.207Z,25.03
2022-07-30T18:15:19.831Z,25.06
2022-07-30T18:17:48.664Z,24.95
2022-07-30T18:20:15.500Z,24.92
2022-07-30T18:22:42.519Z,24.75
2022-07-30T18:25:18.002Z,24.68
2022-07-30T18:27:47.789Z,24.60
2022-07-30T18:30:17.497Z,24.61
2022-07-30T18:32:45.150Z,24.48
2022-07-30T18:35:14.417Z,24.26
2022-07-30T18:37:42.688Z,24.14
2022-07-30T18:40:10.720Z,24.08
2022-07-30T18:42:37.438Z,23.77
2022-07-30T18:45:07.078Z,23.70
2022-07-30T18:47:35.990Z,23.59
2022-07-30T18:50:04.898Z,23.41
2022-07-30T18:52:31.622Z,23.36
2022-07-30T18:55:03.480Z,23.22
2022-07-30T18:57:30.176Z,23.08
2022-07-30T18:59:56.807Z,23.04
2022-07-30T19:02:25.637Z,22.89
2022-07-30T19:04:56.021Z,22.83
2022-07-30T19:07:23.527Z,22.73
2022-07-30T19:09:55.795Z,22.60
2022-07-30T19:12:22.592Z,22.54
2022-07-30T19:14:52.117Z,22.54
2022-07-30T19:17:18.698Z,22.42
2022-07-30T19:19:46.839Z,22.37
2022-07-30T19:22:13.486Z,22.36
2022-07-30T19:24:40.147Z,22.33
2022-07-30T19:27:09.851Z,22.32
2022-07-30T19:29:41.033Z,22.19
2022-07-30T19:32:07.785Z,22.18
2022-07-30T19:34:36.521Z,22.20
2022-07-30T19:37:03.869Z,22.02
2022-07-30T19:39:35.078Z,21.94
2022-07-30T19:42:04.693Z,21.83
2022-07-30T19:44:31.570Z,21.75
2022-07-30T19:47:00.845Z,21.70
2022-07-30T19:49:29.439Z,21.59
2022-07-30T19:52:10.997Z,21.61
2022-07-30T19:54:50.791Z,21.50
2022-07-30T19:57:17.755Z,21.47
2022-07-30T20:00:00.237Z,21.45
2022-07-30T20:02:35.990Z,21.52
2022-07-30T20:05:06.163Z,21.49
2022-07-30T20:07:41.700Z,21.37
2022-07-30T20:10:15.225Z,21.36
2022-07-30T20:12:42.515Z,21.32
2022-07-30T20:15:18.288Z,21.22
2022-07-30T20:17:47.338Z,21.16
2022-07-30T20:20:14.713Z,21.10
2022-07-30T20:22:43.841Z,21.05
2022-07-30T20:25:11.167Z,21.09
2022-07-30T20:27:40.465Z,21.05
2022-07-30T20:30:09.181Z,20.99
2022-07-30T20:32:37.586Z,21.10
2022-07-30T20:35:07.034Z,21.11
2022-07-30T20:37:54.482Z,20.97
2022-07-30T20:40:23.131Z,20.97
2022-07-30T20:42:49.954Z,20.87
2022-07-30T20:45:16.607Z,20.79
2022-07-30T20:47:47.108Z,20.81
2022-07-30T20:50:16.777Z,20.76
2022-07-30T20:52:46.435Z,20.72
2022-07-30T20:55:16.594Z,20.67
2022-07-30T20:58:00.359Z,20.63
2022-07-30T21:00:34.731Z,20.58
2022-07-30T21:03:03.420Z,20.52
2022-07-30T21:05:30.658Z,20.62
2022-07-30T21:08:00.803Z,20.54
2022-07-30T21:10:27.508Z,20.49
2022-07-30T21:12:58.618Z,20.39
2022-07-30T21:15:45.357Z,20.36
2022-07-30T21:18:26.054Z,20.27
2022-07-30T21:20:53.082Z,20.14
2022-07-30T21:23:22.525Z,20.10
2022-07-30T21:26:00.428Z,20.01
2022-07-30T21:28:36.096Z,19.98
2022-07-30T21:31:07.032Z,20.01
2022-07-30T21:33:35.468Z,19.94
2022-07-30T21:36:02.038Z,19.91
2022-07-30T21:38:28.753Z,19.89
2022-07-30T21:40:57.701Z,19.89
2022-07-30T21:43:29.700Z,19.73
2022-07-30T21:46:03.656Z,19.79
2022-07-30T21:48:33.479Z,19.70
2022-07-30T21:51:01.025Z,19.67
2022-07-30T21:53:45.822Z,19.55
2022-07-30T21:56:13.906Z,19.59
2022-07-30T21:58:41.181Z,19.52
2022-07-30T22:01:17.445Z,19.56
2022-07-30T22:04:04.250Z,19.51
2022-07-30T22:06:41.430Z,19.46
2022-07-30T22:09:22.210Z,19.44
2022-07-30T22:12:09.981Z,19.42
2022-07-30T22:14:39.909Z,19.53
2022-07-30T22:17:22.433Z,19.50
2022-07-30T22:19:51.925Z,19.40
2022-07-30T22:22:26.532Z,19.40
2022-07-30T22:24:55.199Z,19.35
2022-07-30T22:27:23.921Z,19.28
2022-07-30T22:29:51.316Z,19.28
2022-07-30T22:32:25.140Z,19.17
2022-07-30T22:34:52.942Z,19.12
2022-07-30T22:37:21.281Z,19.08
2022-07-30T22:39:50.750Z,18.96
2022-07-30T22:42:24.424Z,18.92
2022-07-30T22:44:52.345Z,18.84
2022-07-30T22:47:51.417Z,18.87
2022-07-30T22:50:12.992Z,18.93
2022-07-30T22:52:44.198Z,18.82
2022-07-30T22:55:25.109Z,18.83
2022-07-30T22:57:55.187Z,18.63
2022-07-30T23:00:27.178Z,18.71
2022-07-30T23:02:55.320Z,18.66
2022-07-30T23:05:27.945Z,18.63
2022-07-30T23:07:55.921Z,18.55
2022-07-30T23:10:25.677Z,18.43
2022-07-30T23:12:55.132Z,18.36
2022-07-30T23:15:24.610Z,18.37
2022-07-30T23:17:53.508Z,18.36
2022-07-30T23:20:23.468Z,18.34
2022-07-30T23:22:53.407Z,18.32
2022-07-30T23:25:20.096Z,18.35
2022-07-30T23:27:52.133Z,18.34
2022-07-30T23:30:19.215Z,18.22
2022-07-30T23:32:48.606Z,18.24
2022-07-30T23:35:15.190Z,18.21
2022-07-30T23:37:48.178Z,18.21
2022-07-30T23:40:19.494Z,18.18
2022-07-30T23:42:51.861Z,18.23
2022-07-30T23:45:20.964Z,18.16
2022-07-30T23:48:00.693Z,18.14
2022-07-30T23:50:30.467Z,18.05
2022-07-30T23:52:59.790Z,18.11
2022-07-30T23:55:27.226Z,18.07
2022-07-30T23:57:53.912Z,18.06
